Time;durP1;ratioP1;P1;durP2;ratioP2;P2;SDS_P1;SDS_P2;PMS_P1;PMS_P2;Temp;Humidity;BMP_temperature;BMP_pressure;BME280_temperature;BME280_humidity;BME280_pressure;Samples;Min_cycle;Max_cycle;Signal;HPM_P1;HPM_P2
2021/09/05 00:00:16;;;;;;;28.60;12.20;;;;;;;7.76;76.40;99929.77;115285;1201;138517;-58
2021/09/05 00:02:44;;;;;;;26.70;10.90;;;;;;;7.80;76.21;99932.61;115492;1205;22173;-59
2021/09/05 00:05:13;;;;;;;22.80;10.80;;;;;;;7.82;76.01;99935.43;115412;1205;22306;-59
2021/09/05 00:07:42;;;;;;;29.60;11.30;;;;;;;7.81;75.77;99931.02;115363;1204;141626;-59
2021/09/05 00:10:10;;;;;;;25.50;10.30;;;;;;;7.80;75.75;99934.02;115456;1205;22383;-59
2021/09/05 00:12:39;;;;;;;23.10;11.20;;;;;;;7.78;75.68;99934.38;115384;1201;138102;-59
2021/09/05 00:15:07;;;;;;;20.10;9.70;;;;;;;7.78;75.72;99937.18;115533;1204;23062;-59
2021/09/05 00:17:39;;;;;;;25.70;10.80;;;;;;;7.77;75.72;99942.04;115464;1205;22351;-59
2021/09/05 00:20:15;;;;;;;26.00;11.90;;;;;;;7.76;75.78;99942.30;115315;1201;140446;-59
2021/09/05 00:22:45;;;;;;;19.50;10.10;;;;;;;7.77;75.71;99944.58;115426;1205;22330;-59
2021/09/05 00:25:14;;;;;;;22.10;10.10;;;;;;;7.76;75.65;99944.76;115341;1201;137882;-59
2021/09/05 00:27:42;;;;;;;18.40;10.10;;;;;;;7.75;75.61;99945.27;115458;1205;22288;-59
2021/09/05 00:30:10;;;;;;;24.50;10.40;;;;;;;7.70;75.38;99946.83;115346;1200;137949;-59
2021/09/05 00:32:38;;;;;;;23.90;11.60;;;;;;;7.66;75.44;99951.13;115448;1205;22246;-59
2021/09/05 00:35:07;;;;;;;24.50;11.10;;;;;;;7.63;75.43;99953.77;115499;1205;22310;-59
2021/09/05 00:37:38;;;;;;;26.60;10.80;;;;;;;7.57;75.55;99952.75;115312;1201;138289;-59
2021/09/05 00:40:06;;;;;;;27.00;10.90;;;;;;;7.52;75.47;99955.86;115442;1205;23205;-59
2021/09/05 00:42:35;;;;;;;27.20;11.60;;;;;;;7.45;75.57;99962.80;115403;1202;138006;-59
2021/09/05 00:45:03;;;;;;;21.60;11.00;;;;;;;7.36;75.59;99961.30;115447;1205;22296;-59
2021/09/05 00:47:31;;;;;;;24.90;11.10;;;;;;;7.31;75.69;99961.25;115432;1211;22362;-59
2021/09/05 00:49:59;;;;;;;28.10;11.60;;;;;;;7.27;75.66;99966.79;115304;1201;137836;-59
2021/09/05 00:52:28;;;;;;;23.60;11.70;;;;;;;7.25;75.88;99963.77;115359;1212;22749;-59
2021/09/05 00:54:56;;;;;;;21.60;11.60;;;;;;;7.21;75.74;99967.84;115320;1201;138620;-59
2021/09/05 00:57:25;;;;;;;27.30;11.00;;;;;;;7.16;75.95;99967.04;115441;1205;22285;-59
2021/09/05 00:59:54;;;;;;;16.70;10.20;;;;;;;7.13;75.87;99969.27;115455;1203;22291;-59
2021/09/05 01:02:23;;;;;;;23.80;11.60;;;;;;;7.11;75.92;99969.59;115263;1202;137976;-59
2021/09/05 01:04:55;;;;;;;21.80;11.30;;;;;;;7.09;76.00;99968.73;115474;1212;22824;-59
2021/09/05 01:07:25;;;;;;;18.00;10.20;;;;;;;7.09;76.09;99973.35;115325;1201;138272;-59
2021/09/05 01:09:54;;;;;;;17.80;10.10;;;;;;;7.08;76.27;99974.16;115362;1205;23188;-59
2021/09/05 01:12:22;;;;;;;16.90;10.00;;;;;;;7.07;76.06;99973.58;115291;1202;138033;-59
2021/09/05 01:14:54;;;;;;;23.70;10.80;;;;;;;7.05;76.03;99973.87;115473;1205;22277;-59
2021/09/05 01:17:24;;;;;;;17.70;9.80;;;;;;;7.03;76.28;99974.39;115457;1210;22326;-61
2021/09/05 01:20:11;;;;;;;22.50;11.40;;;;;;;7.01;76.18;99977.20;115356;1204;137598;-60
2021/09/05 01:22:42;;;;;;;19.60;10.30;;;;;;;7.00;76.42;99982.09;115484;1204;22368;-61
2021/09/05 01:25:29;;;;;;;16.30;9.70;;;;;;;6.98;76.50;99987.94;115356;1201;137711;-60
2021/09/05 01:28:15;;;;;;;18.60;10.50;;;;;;;6.96;76.29;99983.65;115462;1205;22310;-60
2021/09/05 01:31:02;;;;;;;21.30;10.80;;;;;;;6.95;76.46;99986.00;115263;1201;137866;-60
2021/09/05 01:33:49;;;;;;;22.60;9.60;;;;;;;6.93;76.40;99988.14;115402;1205;22336;-60
2021/09/05 01:36:48;;;;;;;27.30;10.50;;;;;;;6.90;76.52;99985.57;115336;1201;138331;-60
2021/09/05 01:39:35;;;;;;;19.00;9.40;;;;;;;6.86;76.52;99986.92;115422;1205;22303;-66
2021/09/05 01:42:22;;;;;;;19.00;10.30;;;;;;;6.83;76.56;99987.95;115273;1200;138053;-66
2021/09/05 01:45:06;;;;;;;17.90;9.60;;;;;;;6.78;76.63;99992.83;115439;1206;22224;-65
2021/09/05 01:48:00;;;;;;;16.30;9.20;;;;;;;6.75;76.78;99991.66;115446;1205;22161;-65
2021/09/05 01:50:50;;;;;;;18.90;9.40;;;;;;;6.71;76.43;99996.85;115370;1205;22221;-65
2021/09/05 01:53:44;;;;;;;20.00;9.90;;;;;;;6.68;76.56;99997.82;115396;1205;22323;-65
2021/09/05 01:56:48;;;;;;;23.40;10.20;;;;;;;6.66;76.26;100000.29;115277;1201;137671;-65
2021/09/05 01:59:47;;;;;;;21.10;9.50;;;;;;;6.64;76.72;100006.83;115447;1205;22237;-65
2021/09/05 02:02:47;;;;;;;16.80;9.10;;;;;;;6.62;76.78;100008.73;115327;1205;137613;-65
2021/09/05 02:05:27;;;;;;;20.60;9.30;;;;;;;6.60;76.93;100009.48;115447;1204;22216;-65
2021/09/05 02:08:14;;;;;;;18.00;8.90;;;;;;;6.60;76.74;100011.36;115347;1201;139951;-65
2021/09/05 02:10:55;;;;;;;18.20;10.30;;;;;;;6.60;76.95;100014.82;115489;1209;22286;-66
2021/09/05 02:13:33;;;;;;;21.60;9.90;;;;;;;6.59;76.80;100017.19;115347;1207;138022;-66
2021/09/05 02:16:24;;;;;;;22.00;10.00;;;;;;;6.59;76.95;100020.98;115476;1205;22534;-66
2021/09/05 02:19:22;;;;;;;27.10;10.20;;;;;;;6.58;76.70;100020.23;115418;1201;138065;-65
2021/09/05 02:22:13;;;;;;;23.90;9.60;;;;;;;6.57;77.02;100018.37;115458;1204;22363;-66
2021/09/05 02:25:11;;;;;;;21.30;10.60;;;;;;;6.57;77.10;100021.91;115312;1200;138505;-65
2021/09/05 02:27:45;;;;;;;29.10;11.20;;;;;;;6.57;77.39;100022.04;115520;1204;22266;-65
2021/09/05 02:30:42;;;;;;;20.90;9.60;;;;;;;6.57;77.26;100023.24;115350;1201;138172;-65
2021/09/05 02:33:41;;;;;;;21.80;9.40;;;;;;;6.60;77.47;100024.02;115403;1205;22246;-68
2021/09/05 02:36:29;;;;;;;26.30;9.60;;;;;;;6.61;77.28;100022.77;115254;1202;139382;-65
2021/09/05 02:39:16;;;;;;;15.50;8.30;;;;;;;6.62;77.28;100026.80;115383;1212;22322;-64
2021/09/05 02:42:03;;;;;;;18.30;7.80;;;;;;;6.60;77.13;100028.15;115472;1205;22366;-64
2021/09/05 02:45:05;;;;;;;19.00;8.40;;;;;;;6.57;76.98;100029.45;115349;1204;137854;-64
2021/09/05 02:48:07;;;;;;;15.20;8.10;;;;;;;6.53;76.94;100033.48;115404;1205;22305;-65
2021/09/05 02:51:01;;;;;;;17.20;8.80;;;;;;;6.48;77.01;100032.13;115404;1202;137725;-62
2021/09/05 02:54:06;;;;;;;20.00;8.00;;;;;;;6.44;76.92;100034.92;115380;1204;22333;-62
2021/09/05 02:57:00;;;;;;;20.90;9.90;;;;;;;6.40;76.84;100035.52;115355;1202;138363;-62
2021/09/05 02:59:54;;;;;;;23.70;9.60;;;;;;;6.35;76.63;100039.67;115425;1204;22149;-62
2021/09/05 03:02:47;;;;;;;21.60;9.20;;;;;;;6.30;76.80;100045.54;115349;1201;138193;-62
2021/09/05 03:05:34;;;;;;;17.20;9.50;;;;;;;6.26;76.94;100047.23;115453;1204;22406;-62
2021/09/05 03:08:21;;;;;;;17.10;8.80;;;;;;;6.25;76.98;100052.43;115390;1200;138180;-62
2021/09/05 03:11:20;;;;;;;26.00;10.10;;;;;;;6.23;77.04;100054.23;115386;1205;22245;-62
2021/09/05 03:14:07;;;;;;;20.40;9.20;;;;;;;6.20;77.04;100058.48;115387;1201;138401;-63
2021/09/05 03:16:49;;;;;;;28.10;11.00;;;;;;;6.17;76.73;100059.06;115497;1210;22439;-63
2021/09/05 03:19:44;;;;;;;28.60;10.30;;;;;;;6.13;76.93;100062.53;115356;1200;138645;-63
2021/09/05 03:22:47;;;;;;;32.80;11.30;;;;;;;6.08;76.90;100058.46;115407;1204;22368;-62
2021/09/05 03:25:41;;;;;;;31.50;10.70;;;;;;;6.05;77.00;100062.70;115380;1201;138065;-62
2021/09/05 03:28:28;;;;;;;34.90;9.80;;;;;;;6.01;76.82;100065.71;115513;1204;24630;-62
2021/09/05 03:31:17;;;;;;;31.50;10.40;;;;;;;6.00;76.86;100071.62;115326;1201;138503;-62
2021/09/05 03:34:13;;;;;;;20.90;9.20;;;;;;;5.99;76.97;100069.26;115458;1209;23128;-62
2021/09/05 03:37:10;;;;;;;20.00;9.30;;;;;;;5.97;77.10;100074.84;115349;1199;138004;-64
2021/09/05 03:40:13;;;;;;;19.30;9.70;;;;;;;5.95;77.41;100077.42;115503;1206;22742;-64
2021/09/05 03:42:58;;;;;;;16.40;9.60;;;;;;;5.95;77.63;100080.96;115369;1201;137992;-63
2021/09/05 03:45:49;;;;;;;23.00;9.70;;;;;;;5.98;77.73;100082.53;115506;1211;22100;-64
2021/09/05 03:48:36;;;;;;;17.00;8.50;;;;;;;6.01;77.99;100087.81;115475;1205;22130;-64
2021/09/05 03:51:08;;;;;;;18.00;9.00;;;;;;;6.03;77.96;100089.60;115335;1201;138941;-64
2021/09/05 03:53:40;;;;;;;17.10;8.10;;;;;;;6.08;78.49;100091.55;115489;1205;22318;-64
2021/09/05 03:56:09;;;;;;;13.90;9.00;;;;;;;6.13;78.34;100088.96;115308;1203;138831;-64
2021/09/05 03:58:37;;;;;;;17.80;8.20;;;;;;;6.19;78.70;100094.98;115588;1204;22316;-64
2021/09/05 04:01:05;;;;;;;17.70;8.00;;;;;;;6.26;78.82;100093.22;115310;1201;138494;-64
2021/09/05 04:03:36;;;;;;;20.90;9.10;;;;;;;6.34;78.55;100097.14;115467;1205;22315;-64
2021/09/05 04:06:04;;;;;;;14.20;7.80;;;;;;;6.43;78.97;100099.51;115517;1204;23068;-64
2021/09/05 04:08:39;;;;;;;24.10;9.40;;;;;;;6.53;78.84;100102.11;115314;1202;137844;-63
2021/09/05 04:11:07;;;;;;;19.30;8.90;;;;;;;6.64;78.92;100102.38;115494;1204;23943;-64
2021/09/05 04:13:37;;;;;;;18.00;8.20;;;;;;;6.77;79.07;100103.55;115392;1200;137715;-63
2021/09/05 04:16:06;;;;;;;15.90;8.20;;;;;;;6.88;78.76;100105.89;115490;1205;23349;-63
2021/09/05 04:18:34;;;;;;;19.90;8.70;;;;;;;6.98;78.42;100109.21;115509;1211;23114;-64
2021/09/05 04:21:03;;;;;;;15.90;7.70;;;;;;;7.15;78.28;100110.78;115327;1201;138885;-63
2021/09/05 04:23:32;;;;;;;14.10;7.80;;;;;;;7.41;78.25;100111.35;115487;1205;22216;-64
2021/09/05 04:26:00;;;;;;;15.40;8.40;;;;;;;7.68;77.79;100112.26;115397;1201;137843;-64
2021/09/05 04:28:28;;;;;;;16.10;10.40;;;;;;;7.96;77.13;100113.95;115516;1204;22341;-64
2021/09/05 04:30:56;;;;;;;20.10;10.20;;;;;;;8.19;76.46;100112.04;115404;1201;138182;-63
2021/09/05 04:33:24;;;;;;;19.60;9.40;;;;;;;8.43;76.03;100112.42;115523;1206;22409;-64
2021/09/05 04:35:52;;;;;;;17.90;9.30;;;;;;;8.70;75.16;100113.68;115548;1204;22200;-64
2021/09/05 04:38:20;;;;;;;22.90;9.20;;;;;;;8.96;74.41;100105.89;115396;1201;138579;-64
2021/09/05 04:40:48;;;;;;;19.50;9.00;;;;;;;9.20;73.57;100111.97;112454;1211;22987;-63
2021/09/05 04:43:17;;;;;;;11.30;7.60;;;;;;;9.39;72.81;100114.88;111088;1201;137591;-62
2021/09/05 04:45:45;;;;;;;13.50;7.00;;;;;;;9.66;72.49;100113.01;115550;1204;22295;-63
2021/09/05 04:48:13;;;;;;;13.50;7.20;;;;;;;10.01;71.45;100114.59;115512;1204;22387;-62
2021/09/05 04:50:41;;;;;;;10.30;7.00;;;;;;;10.26;70.21;100110.97;115284;1201;138684;-62
2021/09/05 04:53:09;;;;;;;11.40;7.10;;;;;;;10.42;69.41;100115.54;115437;1204;22322;-64
2021/09/05 04:55:37;;;;;;;10.70;6.30;;;;;;;10.48;68.39;100119.36;115388;1201;137924;-63
2021/09/05 04:58:05;;;;;;;10.70;6.40;;;;;;;10.48;68.30;100122.29;115454;1205;22300;-62
2021/09/05 05:00:33;;;;;;;13.10;6.30;;;;;;;10.46;68.20;100119.80;115501;1204;22321;-63
2021/09/05 05:03:03;;;;;;;10.00;6.50;;;;;;;10.46;67.89;100120.82;115376;1201;137398;-64
2021/09/05 05:05:31;;;;;;;12.60;6.30;;;;;;;10.45;67.70;100121.19;115499;1206;23034;-62
2021/09/05 05:07:59;;;;;;;12.50;6.90;;;;;;;10.43;67.91;100123.34;115409;1201;137904;-64
2021/09/05 05:10:27;;;;;;;10.60;6.50;;;;;;;10.45;67.93;100122.23;115424;1205;22307;-63
2021/09/05 05:12:55;;;;;;;14.80;6.60;;;;;;;10.49;67.73;100123.57;115365;1201;138439;-62
2021/09/05 05:15:23;;;;;;;14.80;6.50;;;;;;;10.54;67.64;100122.95;115499;1204;22184;-62
2021/09/05 05:18:11;;;;;;;13.20;6.40;;;;;;;10.56;67.71;100122.17;115545;1205;22231;-65
2021/09/05 05:20:39;;;;;;;9.10;6.20;;;;;;;10.55;67.76;100123.02;115386;1201;138992;-63
2021/09/05 05:23:07;;;;;;;11.50;6.00;;;;;;;10.57;68.03;100123.55;115465;1204;22333;-63
2021/09/05 05:25:35;;;;;;;9.30;5.50;;;;;;;10.65;68.08;100126.05;115420;1201;138434;-63
2021/09/05 05:28:04;;;;;;;11.60;6.10;;;;;;;10.83;68.11;100126.06;115477;1205;22346;-63
2021/09/05 05:30:31;;;;;;;14.20;6.50;;;;;;;11.06;67.33;100123.80;115551;1204;22355;-63
2021/09/05 05:33:00;;;;;;;13.10;6.60;;;;;;;11.23;66.83;100124.91;115439;1201;137129;-64
2021/09/05 05:35:28;;;;;;;19.40;6.50;;;;;;;11.35;66.29;100126.20;115520;1204;22259;-63
2021/09/05 05:38:02;;;;;;;13.20;6.20;;;;;;;11.46;66.03;100127.52;115359;1200;138652;-64
2021/09/05 05:40:33;;;;;;;13.70;6.50;;;;;;;11.55;66.12;100125.64;115509;1211;22312;-67
2021/09/05 05:43:01;;;;;;;8.40;5.40;;;;;;;11.62;66.03;100125.48;115383;1200;138399;-68
2021/09/05 05:45:29;;;;;;;11.10;5.60;;;;;;;11.67;65.68;100125.17;115487;1204;23007;-68
2021/09/05 05:47:57;;;;;;;14.60;6.10;;;;;;;11.68;65.63;100130.00;115527;1204;22398;-64
2021/09/05 05:50:26;;;;;;;9.40;6.20;;;;;;;11.70;65.47;100131.53;115394;1201;137675;-66
2021/09/05 05:52:54;;;;;;;16.00;6.30;;;;;;;11.73;65.46;100133.05;115488;1205;22333;-66
2021/09/05 05:55:22;;;;;;;13.00;6.50;;;;;;;11.80;65.40;100136.02;115427;1200;138292;-66
2021/09/05 05:57:50;;;;;;;17.30;6.90;;;;;;;11.86;65.24;100140.05;115549;1204;23199;-66
2021/09/05 06:00:20;;;;;;;21.30;5.70;;;;;;;11.91;64.97;100139.09;115527;1204;22238;-65
2021/09/05 06:02:51;;;;;;;12.70;4.90;;;;;;;11.97;64.23;100140.70;115376;1202;137582;-65
2021/09/05 06:05:20;;;;;;;14.30;5.50;;;;;;;12.03;64.48;100144.29;115530;1204;22308;-65
2021/09/05 06:07:48;;;;;;;20.90;5.70;;;;;;;12.12;63.96;100142.11;115403;1201;137864;-65
2021/09/05 06:10:17;;;;;;;11.20;4.30;;;;;;;12.20;63.90;100142.27;115546;1204;22177;-65
2021/09/05 06:12:46;;;;;;;10.90;4.40;;;;;;;12.28;63.63;100147.11;115389;1200;138336;-64
2021/09/05 06:15:14;;;;;;;9.50;3.70;;;;;;;12.37;63.26;100150.15;115486;1204;22122;-66
2021/09/05 06:18:02;;;;;;;;;;;;;;;12.44;62.44;100149.13;115521;1204;22380;-66
2021/09/05 06:20:31;;;;;;;9.60;3.50;;;;;;;12.49;61.58;100149.14;115456;1201;124140;-65
2021/09/05 06:22:59;;;;;;;6.30;3.10;;;;;;;12.53;61.35;100153.29;115430;1197;23752;-64
2021/09/05 06:25:28;;;;;;;11.50;3.40;;;;;;;12.56;61.15;100150.58;115416;1201;138603;-66
2021/09/05 06:27:56;;;;;;;5.60;2.60;;;;;;;12.62;61.28;100156.05;115487;1204;22377;-66
2021/09/05 06:30:24;;;;;;;12.80;3.80;;;;;;;12.67;60.55;100157.84;115460;1204;22371;-66
2021/09/05 06:35:22;;;;;;;7.70;2.70;;;;;;;12.82;60.56;100163.35;110216;1220;544804;-66
2021/09/05 06:37:51;;;;;;;7.70;2.40;;;;;;;12.87;59.95;100161.09;111128;1205;136951;-66
2021/09/05 06:40:19;;;;;;;6.50;2.30;;;;;;;12.91;58.96;100162.83;113039;1209;25594;-62
2021/09/05 06:42:47;;;;;;;4.90;2.50;;;;;;;12.92;58.78;100165.27;115172;1205;138302;-63
2021/09/05 06:45:15;;;;;;;8.30;2.90;;;;;;;12.94;58.73;100163.04;115361;1209;22302;-63
2021/09/05 06:47:43;;;;;;;9.00;2.50;;;;;;;12.97;59.31;100165.04;115285;1208;22320;-62
2021/09/05 06:50:11;;;;;;;5.30;3.30;;;;;;;13.03;59.08;100168.98;115193;1208;136940;-62
2021/09/05 06:52:40;;;;;;;5.40;2.50;;;;;;;13.08;58.76;100167.51;115300;1210;22325;-64
2021/09/05 06:55:09;;;;;;;3.40;2.50;;;;;;;13.13;58.14;100168.53;115182;1205;136928;-64
2021/09/05 06:57:37;;;;;;;5.50;1.90;;;;;;;13.15;57.95;100175.19;115251;1208;22324;-64
2021/09/05 07:00:05;;;;;;;4.90;2.40;;;;;;;13.17;56.96;100173.24;115312;1209;22359;-64
2021/09/05 07:02:34;;;;;;;4.00;1.90;;;;;;;13.19;57.08;100178.23;115171;1205;137684;-65
2021/09/05 07:05:03;;;;;;;5.10;2.20;;;;;;;13.23;57.19;100177.59;115262;1209;23010;-65
2021/09/05 07:07:43;;;;;;;7.30;2.10;;;;;;;13.31;57.37;100179.45;115202;1205;136764;-64
2021/09/05 07:10:11;;;;;;;3.70;1.90;;;;;;;13.38;57.20;100179.80;115237;1209;22289;-63
2021/09/05 07:12:41;;;;;;;6.50;1.80;;;;;;;13.47;56.59;100181.95;115321;1208;22392;-64
2021/09/05 07:15:10;;;;;;;2.90;1.70;;;;;;;13.54;56.28;100182.61;115149;1204;136789;-64
2021/09/05 07:17:38;;;;;;;4.00;1.80;;;;;;;13.59;55.67;100183.63;115293;1216;22304;-64
2021/09/05 07:20:07;;;;;;;8.50;2.00;;;;;;;13.64;55.15;100185.77;115154;1215;136769;-65
2021/09/05 07:22:36;;;;;;;3.20;1.60;;;;;;;13.68;54.86;100186.35;115514;1204;22227;-64
2021/09/05 07:25:07;;;;;;;1.90;1.30;;;;;;;13.72;53.76;100184.05;115388;1201;138159;-64
2021/09/05 07:27:35;;;;;;;2.00;1.30;;;;;;;13.73;54.21;100181.34;115524;1204;23076;-64
2021/09/05 07:30:07;;;;;;;3.00;1.60;;;;;;;13.79;53.29;100188.45;115454;1206;23054;-64
2021/09/05 07:32:36;;;;;;;4.20;1.80;;;;;;;13.81;52.13;100187.15;115437;1201;136641;-64
2021/09/05 07:35:05;;;;;;;3.80;1.60;;;;;;;13.84;53.11;100191.94;115401;1212;22386;-65
2021/09/05 07:37:34;;;;;;;5.60;1.20;;;;;;;13.88;52.88;100189.77;115299;1202;137618;-65
2021/09/05 07:40:03;;;;;;;2.50;1.50;;;;;;;13.95;52.32;100193.27;115531;1204;23417;-67
2021/09/05 07:42:32;;;;;;;3.00;1.20;;;;;;;13.99;51.01;100197.64;115553;1204;22287;-66
2021/09/05 07:45:00;;;;;;;2.20;1.30;;;;;;;14.00;49.20;100198.66;115364;1201;136947;-66
2021/09/05 07:47:28;;;;;;;4.50;1.60;;;;;;;13.99;49.60;100201.20;115526;1206;23083;-67
2021/09/05 07:49:55;;;;;;;3.10;1.90;;;;;;;13.99;49.30;100201.48;115354;1201;136785;-66
2021/09/05 07:52:23;;;;;;;2.30;1.40;;;;;;;13.96;49.25;100203.70;115514;1205;23065;-66
2021/09/05 07:54:51;;;;;;;3.00;1.30;;;;;;;13.93;49.47;100202.14;115409;1201;137468;-66
2021/09/05 07:57:20;;;;;;;2.60;1.30;;;;;;;13.94;50.07;100202.75;115508;1205;22348;-67
2021/09/05 07:59:48;;;;;;;4.50;1.50;;;;;;;13.98;49.68;100202.89;115508;1207;22194;-66
2021/09/05 08:02:15;;;;;;;2.50;1.50;;;;;;;14.03;50.41;100199.57;115396;1201;136740;-67
2021/09/05 08:04:44;;;;;;;7.80;1.80;;;;;;;14.09;49.68;100199.84;115514;1205;22412;-67
2021/09/05 08:07:12;;;;;;;4.50;1.20;;;;;;;14.13;47.40;100204.96;115364;1201;137315;-66
2021/09/05 08:09:40;;;;;;;2.80;1.50;;;;;;;14.15;47.74;100200.63;115469;1206;23276;-66
2021/09/05 08:12:08;;;;;;;5.80;1.60;;;;;;;14.18;48.80;100200.10;115498;1207;22948;-67
2021/09/05 08:14:36;;;;;;;3.50;1.40;;;;;;;14.26;49.84;100204.87;115314;1201;137508;-67
2021/09/05 08:17:04;;;;;;;2.70;1.20;;;;;;;14.32;47.90;100201.66;115512;1206;22090;-67
2021/09/05 08:19:32;;;;;;;4.20;1.60;;;;;;;14.34;47.18;100202.50;115428;1207;136780;-67
2021/09/05 08:22:00;;;;;;;2.80;1.70;;;;;;;14.34;47.17;100203.59;115452;1204;22921;-65
2021/09/05 08:24:28;;;;;;;2.40;1.20;;;;;;;14.35;46.48;100201.58;115529;1205;22417;-64
2021/09/05 08:26:56;;;;;;;4.50;1.40;;;;;;;14.34;46.81;100201.02;115386;1201;136754;-65
2021/09/05 08:29:24;;;;;;;2.60;1.20;;;;;;;14.33;47.27;100196.95;115507;1205;22106;-65
2021/09/05 08:32:11;;;;;;;2.60;1.10;;;;;;;14.37;47.45;100199.06;115384;1201;137014;-65
2021/09/05 08:34:40;;;;;;;2.40;1.30;;;;;;;14.42;47.98;100205.92;115533;1207;22297;-65
2021/09/05 08:37:08;;;;;;;1.40;0.80;;;;;;;14.49;45.70;100208.69;115343;1202;136904;-65
2021/09/05 08:39:35;;;;;;;2.30;1.20;;;;;;;14.54;45.62;100209.16;114653;1205;22434;-64
2021/09/05 08:42:04;;;;;;;2.70;1.40;;;;;;;14.59;45.39;100210.33;115348;1206;22361;-64
2021/09/05 08:44:32;;;;;;;1.70;1.10;;;;;;;14.61;45.61;100215.81;115404;1201;137302;-64
2021/09/05 08:47:01;;;;;;;2.10;1.30;;;;;;;14.65;44.56;100218.77;115507;1206;22331;-64
2021/09/05 08:49:32;;;;;;;1.50;1.10;;;;;;;14.70;44.74;100216.20;115362;1201;137256;-64
2021/09/05 08:52:00;;;;;;;3.50;1.40;;;;;;;14.75;44.27;100215.77;115551;1207;22337;-64
2021/09/05 08:54:28;;;;;;;6.30;1.10;;;;;;;14.79;44.54;100214.80;115459;1205;22885;-64
2021/09/05 08:56:57;;;;;;;1.50;1.30;;;;;;;14.86;43.77;100216.59;115422;1201;137380;-64
2021/09/05 08:59:26;;;;;;;1.70;1.00;;;;;;;14.94;43.09;100224.02;115432;1207;22325;-64
2021/09/05 09:02:02;;;;;;;1.80;1.20;;;;;;;14.95;42.43;100219.96;115413;1201;137131;-64
2021/09/05 09:04:41;;;;;;;1.70;1.10;;;;;;;14.90;42.35;100219.95;115525;1205;22076;-65
2021/09/05 09:07:09;;;;;;;1.10;1.00;;;;;;;14.82;41.97;100222.23;115414;1202;137510;-64
2021/09/05 09:09:51;;;;;;;2.50;1.00;;;;;;;14.78;42.25;100216.06;115496;1205;22318;-64
2021/09/05 09:12:35;;;;;;;4.30;1.20;;;;;;;14.78;42.69;100220.61;115506;1207;22224;-64
2021/09/05 09:15:26;;;;;;;1.80;1.10;;;;;;;14.78;42.60;100214.69;115417;1201;136612;-64
2021/09/05 09:17:59;;;;;;;1.00;0.80;;;;;;;14.82;43.63;100216.73;115476;1205;22343;-64
2021/09/05 09:20:31;;;;;;;1.80;1.00;;;;;;;14.92;43.75;100215.01;115366;1201;136999;-64
2021/09/05 09:23:10;;;;;;;1.30;0.90;;;;;;;15.02;43.43;100210.14;115510;1205;22342;-64
2021/09/05 09:26:09;;;;;;;1.10;0.90;;;;;;;15.10;43.66;100210.02;115430;1201;137164;-64
2021/09/05 09:28:40;;;;;;;1.10;1.00;;;;;;;15.16;43.72;100201.12;115494;1207;22335;-64
2021/09/05 09:31:19;;;;;;;1.30;1.00;;;;;;;15.22;42.60;100205.09;115438;1202;137446;-64
2021/09/05 09:33:49;;;;;;;5.30;1.00;;;;;;;15.19;42.29;100195.48;115502;1205;22381;-64
2021/09/05 09:36:18;;;;;;;4.40;1.10;;;;;;;15.17;42.58;100201.29;115500;1205;22324;-64
2021/09/05 09:39:14;;;;;;;1.10;0.80;;;;;;;15.16;42.17;100201.23;115330;1202;137013;-64
2021/09/05 09:41:42;;;;;;;2.80;1.10;;;;;;;15.15;42.01;100197.72;115498;1205;23171;-67
2021/09/05 09:44:12;;;;;;;2.50;1.10;;;;;;;15.17;42.69;100199.86;115398;1202;137380;-66
2021/09/05 09:46:42;;;;;;;4.10;1.30;;;;;;;15.22;42.89;100199.39;115547;1205;22289;-65
2021/09/05 09:49:11;;;;;;;2.10;1.00;;;;;;;15.27;42.64;100200.83;115392;1201;137352;-64
2021/09/05 09:51:39;;;;;;;1.30;1.00;;;;;;;15.28;42.22;100199.25;115493;1208;22218;-65
2021/09/05 09:54:08;;;;;;;3.90;1.40;;;;;;;15.28;42.32;100203.86;115486;1207;22328;-65
2021/09/05 09:56:36;;;;;;;5.20;1.20;;;;;;;15.27;42.97;100206.16;115382;1202;137353;-65
2021/09/05 09:59:06;;;;;;;5.40;1.20;;;;;;;15.24;42.64;100211.91;115517;1205;22244;-65
2021/09/05 10:01:34;;;;;;;6.90;2.00;;;;;;;15.14;42.12;100215.89;115385;1202;137235;-65
2021/09/05 10:04:02;;;;;;;8.50;1.00;;;;;;;14.98;43.87;100238.73;115486;1207;22150;-64
2021/09/05 10:06:32;;;;;;;2.20;1.10;;;;;;;14.75;47.19;100261.15;115480;1206;22840;-65
2021/09/05 10:09:03;;;;;;;5.60;1.30;;;;;;;14.42;50.22;100284.81;115444;1211;137189;-65
2021/09/05 10:11:36;;;;;;;6.60;1.20;;;;;;;13.99;50.72;100279.66;115488;1205;22300;-65
2021/09/05 10:14:04;;;;;;;3.40;1.10;;;;;;;13.62;53.90;100269.20;115388;1201;137023;-64
2021/09/05 10:16:52;;;;;;;5.90;3.20;;;;;;;13.37;56.72;100270.33;115521;1209;22370;-65
2021/09/05 10:19:20;;;;;;;4.40;2.30;;;;;;;13.23;58.80;100268.27;115390;1201;139224;-65
2021/09/05 10:21:49;;;;;;;3.70;2.00;;;;;;;13.16;59.48;100271.39;115445;1212;22306;-64
2021/09/05 10:24:18;;;;;;;2.90;1.60;;;;;;;13.12;60.29;100271.84;115442;1207;23280;-66
2021/09/05 10:27:06;;;;;;;4.70;2.10;;;;;;;13.13;61.63;100273.77;115392;1206;136883;-66
2021/09/05 10:29:34;;;;;;;3.50;2.00;;;;;;;13.21;61.98;100273.61;115494;1212;22418;-67
2021/09/05 10:32:03;;;;;;;2.80;1.20;;;;;;;13.32;62.22;100274.93;115405;1202;137573;-66
2021/09/05 10:34:36;;;;;;;1.70;0.90;;;;;;;13.46;60.17;100277.04;115522;1208;23116;-65
2021/09/05 10:37:09;;;;;;;1.30;0.90;;;;;;;13.59;58.05;100286.98;115396;1201;137417;-64
2021/09/05 10:40:06;;;;;;;1.10;1.00;;;;;;;13.71;56.52;100286.05;115476;1205;22246;-64
2021/09/05 10:42:57;;;;;;;2.50;1.60;;;;;;;13.80;56.01;100285.00;115532;1205;22323;-65
2021/09/05 10:45:26;;;;;;;1.60;0.80;;;;;;;13.82;54.83;100274.88;115408;1201;136671;-64
2021/09/05 10:47:54;;;;;;;4.80;1.10;;;;;;;13.80;54.79;100274.69;115489;1208;22336;-64
2021/09/05 10:50:38;;;;;;;3.10;1.30;;;;;;;13.77;54.69;100272.69;115344;1202;137084;-64
2021/09/05 10:53:14;;;;;;;2.40;1.10;;;;;;;13.72;54.51;100268.91;115467;1205;22434;-64
2021/09/05 10:56:04;;;;;;;3.30;1.60;;;;;;;13.70;56.44;100264.75;115347;1201;137666;-64
2021/09/05 10:58:39;;;;;;;1.90;1.10;;;;;;;13.71;57.25;100256.96;115498;1205;22325;-64
2021/09/05 11:01:10;;;;;;;1.80;1.20;;;;;;;13.77;56.49;100254.88;115361;1206;137283;-66
2021/09/05 11:04:09;;;;;;;2.00;1.20;;;;;;;13.85;55.93;100252.92;115551;1205;22312;-66
2021/09/05 11:06:37;;;;;;;3.00;1.30;;;;;;;13.97;54.96;100246.94;115547;1205;22316;-66
2021/09/05 11:09:22;;;;;;;1.80;1.00;;;;;;;14.06;53.84;100240.80;115381;1201;137557;-66
2021/09/05 11:12:00;;;;;;;1.40;0.80;;;;;;;14.18;53.46;100236.39;115480;1205;22342;-66
2021/09/05 11:14:35;;;;;;;1.60;1.30;;;;;;;14.29;53.06;100234.11;115389;1203;139286;-66
2021/09/05 11:17:29;;;;;;;3.30;1.40;;;;;;;14.41;53.01;100231.40;115489;1205;22445;-66
2021/09/05 11:20:04;;;;;;;2.30;1.40;;;;;;;14.51;52.79;100233.00;115374;1201;137124;-66
2021/09/05 11:22:33;;;;;;;1.90;1.20;;;;;;;14.58;52.37;100233.58;115446;1205;22228;-65
2021/09/05 11:25:30;;;;;;;2.20;1.20;;;;;;;14.64;52.80;100230.32;115347;1201;137578;-63
2021/09/05 11:28:04;;;;;;;2.10;1.40;;;;;;;14.68;52.49;100232.21;115485;1208;22366;-65
2021/09/05 11:30:46;;;;;;;1.90;1.00;;;;;;;14.73;52.36;100227.94;115462;1203;22345;-66
2021/09/05 11:33:15;;;;;;;2.30;1.20;;;;;;;14.77;52.28;100232.90;115354;1202;137709;-65
2021/09/05 11:35:45;;;;;;;2.50;1.30;;;;;;;14.83;52.11;100233.42;115508;1206;22387;-66
2021/09/05 11:38:17;;;;;;;1.30;1.10;;;;;;;14.89;51.66;100247.04;115336;1202;138692;-65
2021/09/05 11:40:49;;;;;;;3.80;1.50;;;;;;;14.90;52.52;100255.83;115545;1205;22229;-66
2021/09/05 11:43:36;;;;;;;1.70;1.00;;;;;;;14.76;52.79;100250.62;115399;1202;137727;-66
2021/09/05 11:46:11;;;;;;;;;;;;;;;14.48;54.19;100248.55;115448;1208;22319;-66
2021/09/05 11:48:58;;;;;;;2.60;1.10;;;;;;;14.19;55.05;100246.81;115469;1210;22397;-64
2021/09/05 11:51:34;;;;;;;2.50;1.30;;;;;;;13.93;55.86;100247.06;115347;1201;138090;-64